createdAt,value
2018-06-03T00:00:29.499Z,98860.00
2018-06-03T00:02:58.219Z,98864.00
2018-06-03T00:05:27.053Z,98866.00
2018-06-03T00:07:55.771Z,98859.00
2018-06-03T00:10:24.511Z,98858.00
2018-06-03T00:12:53.297Z,98859.00
2018-06-03T00:15:22.083Z,98764.00
2018-06-03T00:17:50.922Z,98856.00
2018-06-03T00:20:35.498Z,98854.00
2018-06-03T00:23:04.371Z,98853.00
2018-06-03T00:25:33.059Z,98853.00
2018-06-03T00:28:01.741Z,98851.00
2018-06-03T00:30:30.518Z,98851.00
2018-06-03T00:32:59.206Z,98848.00
2018-06-03T00:35:27.911Z,98851.00
2018-06-03T00:37:56.646Z,98845.00
2018-06-03T00:40:25.665Z,98849.00
2018-06-03T00:42:54.317Z,98851.00
2018-06-03T00:45:23.006Z,98849.00
2018-06-03T00:47:51.693Z,98847.00
2018-06-03T00:50:20.378Z,98842.00
2018-06-03T00:52:49.150Z,98840.00
2018-06-03T00:55:17.844Z,98841.00
2018-06-03T00:57:46.559Z,98841.00
2018-06-03T01:00:15.234Z,98845.00
2018-06-03T01:02:43.926Z,98848.00
2018-06-03T01:05:12.883Z,98846.00
2018-06-03T01:07:41.558Z,98846.00
2018-06-03T01:10:10.240Z,98845.00
2018-06-03T01:12:38.971Z,98840.00
2018-06-03T01:15:07.811Z,98838.00
2018-06-03T01:17:36.305Z,98838.00
2018-06-03T01:20:05.006Z,98837.00
2018-06-03T01:22:33.681Z,98841.00
2018-06-03T01:25:02.392Z,98846.00
2018-06-03T01:27:31.084Z,98843.00
2018-06-03T01:29:59.771Z,98842.00
2018-06-03T01:32:28.554Z,98836.00
2018-06-03T01:34:57.211Z,98837.00
2018-06-03T01:37:25.901Z,98838.00
2018-06-03T01:39:54.587Z,98828.00
2018-06-03T01:42:23.275Z,98832.00
2018-06-03T01:44:51.966Z,98831.00
2018-06-03T01:47:20.638Z,98829.00
2018-06-03T01:49:49.311Z,98831.00
2018-06-03T01:52:18.019Z,98829.00
2018-06-03T01:54:46.701Z,98826.00
2018-06-03T01:57:15.368Z,98827.00
2018-06-03T01:59:44.058Z,98825.00
2018-06-03T02:02:12.799Z,98820.00
2018-06-03T02:04:41.546Z,98818.00
2018-06-03T02:07:10.236Z,98813.00
2018-06-03T02:09:38.933Z,98818.00
2018-06-03T02:12:07.653Z,98814.00
2018-06-03T02:14:36.138Z,98817.00
2018-06-03T02:17:05.231Z,98815.00
2018-06-03T02:19:33.901Z,98807.00
2018-06-03T02:22:02.581Z,98814.00
2018-06-03T02:24:31.259Z,98813.00
2018-06-03T02:26:59.953Z,98820.00
2018-06-03T02:29:28.639Z,98816.00
2018-06-03T02:31:57.307Z,98815.00
2018-06-03T02:34:26.040Z,98811.00
2018-06-03T02:36:54.734Z,98808.00
2018-06-03T02:39:23.407Z,98801.00
2018-06-03T02:41:52.081Z,98797.00
2018-06-03T02:44:20.766Z,98799.00
2018-06-03T02:46:49.508Z,98795.00
2018-06-03T02:49:18.199Z,98797.00
2018-06-03T02:51:46.890Z,98799.00
2018-06-03T02:54:15.551Z,98808.00
2018-06-03T02:56:44.231Z,98813.00
2018-06-03T02:59:12.903Z,98812.00
2018-06-03T03:01:41.592Z,98810.00
2018-06-03T03:04:10.258Z,98814.00
2018-06-03T03:06:38.937Z,98818.00
2018-06-03T03:09:07.638Z,98819.00
2018-06-03T03:11:36.307Z,98821.00
2018-06-03T03:14:04.953Z,98821.00
2018-06-03T03:16:33.633Z,98819.00
2018-06-03T03:19:02.327Z,98827.00
2018-06-03T03:21:31.006Z,98820.00
2018-06-03T03:23:59.698Z,98827.00
2018-06-03T03:26:28.373Z,98830.00
2018-06-03T03:28:57.054Z,98833.00
2018-06-03T03:31:26.634Z,98830.00
2018-06-03T03:33:55.299Z,98828.00
2018-06-03T03:36:23.973Z,98830.00
2018-06-03T03:38:52.631Z,98827.00
2018-06-03T03:41:21.313Z,98826.00
2018-06-03T03:43:49.998Z,98831.00
2018-06-03T03:46:18.679Z,98838.00
2018-06-03T03:48:47.361Z,98839.00
2018-06-03T03:51:16.051Z,98840.00
2018-06-03T03:53:44.731Z,98847.00
2018-06-03T03:56:13.448Z,98851.00
2018-06-03T03:58:42.139Z,98852.00
2018-06-03T04:01:10.846Z,98849.00
2018-06-03T04:03:39.523Z,98848.00
2018-06-03T04:06:08.240Z,98845.00
2018-06-03T04:08:36.908Z,98849.00
2018-06-03T04:11:05.746Z,98845.00
2018-06-03T04:13:34.438Z,98846.00
2018-06-03T04:16:03.105Z,98845.00
2018-06-03T04:18:31.788Z,98848.00
2018-06-03T04:21:00.478Z,98851.00
2018-06-03T04:23:29.171Z,98849.00
2018-06-03T04:25:57.890Z,98847.00
2018-06-03T04:28:26.383Z,98851.00
2018-06-03T04:30:55.101Z,98847.00
2018-06-03T04:33:23.801Z,98851.00
2018-06-03T04:35:52.490Z,98847.00
2018-06-03T04:38:21.228Z,98852.00
2018-06-03T04:40:49.931Z,98854.00
2018-06-03T04:43:18.618Z,98853.00
2018-06-03T04:45:47.303Z,98858.00
2018-06-03T04:48:15.979Z,98861.00
2018-06-03T04:50:44.670Z,98865.00
2018-06-03T04:53:13.371Z,98871.00
2018-06-03T04:55:42.045Z,98871.00
2018-06-03T04:58:10.709Z,98868.00
2018-06-03T05:00:39.394Z,98866.00
2018-06-03T05:03:08.083Z,98860.00
2018-06-03T05:05:36.772Z,98865.00
2018-06-03T05:08:05.562Z,98867.00
2018-06-03T05:10:34.264Z,98864.00
2018-06-03T05:13:02.950Z,98860.00
2018-06-03T05:15:31.648Z,98857.00
2018-06-03T05:18:00.340Z,98856.00
2018-06-03T05:20:29.026Z,98856.00
2018-06-03T05:22:57.689Z,98854.00
2018-06-03T05:25:26.381Z,98861.00
2018-06-03T05:27:55.078Z,98858.00
2018-06-03T05:30:23.778Z,98865.00
2018-06-03T05:32:52.458Z,98863.00
2018-06-03T05:35:21.151Z,98872.00
2018-06-03T05:37:49.926Z,98861.00
2018-06-03T05:40:18.606Z,98863.00
2018-06-03T05:42:47.606Z,98866.00
2018-06-03T05:45:16.286Z,98868.00
2018-06-03T05:47:44.966Z,98869.00
2018-06-03T05:50:13.655Z,98870.00
2018-06-03T05:52:42.349Z,98868.00
2018-06-03T05:55:11.061Z,98867.00
2018-06-03T05:57:39.748Z,98874.00
2018-06-03T06:00:08.231Z,98879.00
2018-06-03T06:02:36.746Z,98873.00
2018-06-03T06:05:05.440Z,98873.00
2018-06-03T06:07:34.136Z,98867.00
2018-06-03T06:10:02.939Z,98863.00
2018-06-03T06:12:31.733Z,98864.00
2018-06-03T06:15:00.594Z,98863.00
2018-06-03T06:17:29.290Z,98856.00
2018-06-03T06:19:58.168Z,98857.00
2018-06-03T06:22:27.139Z,98847.00
2018-06-03T06:24:55.879Z,98857.00
2018-06-03T06:27:24.558Z,98859.00
2018-06-03T06:29:53.230Z,98853.00
2018-06-03T06:32:21.928Z,98853.00
2018-06-03T06:34:50.698Z,98850.00
2018-06-03T06:37:19.338Z,98855.00
2018-06-03T06:39:48.054Z,98854.00
2018-06-03T06:42:16.727Z,98845.00
2018-06-03T06:44:45.422Z,98835.00
2018-06-03T06:47:14.098Z,98839.00
2018-06-03T06:49:42.800Z,98841.00
2018-06-03T06:52:11.497Z,98839.00
2018-06-03T06:54:40.212Z,98841.00
2018-06-03T06:57:08.733Z,98837.00
2018-06-03T06:59:37.444Z,98837.00
2018-06-03T07:02:06.154Z,98838.00
2018-06-03T07:04:34.839Z,98839.00
2018-06-03T07:07:03.522Z,98834.00
2018-06-03T07:09:32.253Z,98832.00
2018-06-03T07:12:00.995Z,98832.00
2018-06-03T07:14:29.715Z,98828.00
2018-06-03T07:16:58.431Z,98829.00
2018-06-03T07:19:27.119Z,98825.00
2018-06-03T07:21:55.916Z,98828.00
2018-06-03T07:24:26.790Z,98824.00
2018-06-03T07:26:55.510Z,98830.00
2018-06-03T07:29:24.060Z,98829.00
2018-06-03T07:31:52.758Z,98825.00
2018-06-03T07:34:21.686Z,98830.00
2018-06-03T07:36:50.417Z,98824.00
2018-06-03T07:39:19.177Z,98820.00
2018-06-03T07:41:47.887Z,98817.00
2018-06-03T07:44:16.665Z,98814.00
2018-06-03T07:46:45.411Z,98806.00
2018-06-03T07:49:14.139Z,98799.00
2018-06-03T07:51:42.866Z,98800.00
2018-06-03T07:54:11.386Z,98797.00
2018-06-03T07:56:40.092Z,98802.00
2018-06-03T07:59:08.810Z,98808.00
2018-06-03T08:01:37.330Z,98805.00
2018-06-03T08:04:06.278Z,98806.00
2018-06-03T08:06:34.785Z,98806.00
2018-06-03T08:09:04.395Z,98805.00
2018-06-03T08:11:33.076Z,98802.00
2018-06-03T08:14:01.802Z,98804.00
2018-06-03T08:16:30.504Z,98804.00
2018-06-03T08:18:59.248Z,98809.00
2018-06-03T08:21:28.076Z,98806.00
2018-06-03T08:23:56.862Z,98808.00
2018-06-03T08:26:25.597Z,98809.00
2018-06-03T08:28:54.308Z,98810.00
2018-06-03T08:31:22.974Z,98813.00
2018-06-03T08:33:51.824Z,98807.00
2018-06-03T08:36:20.572Z,98810.00
2018-06-03T08:38:49.311Z,98809.00
2018-06-03T08:41:18.012Z,98813.00
2018-06-03T08:43:46.733Z,98808.00
2018-06-03T08:46:15.543Z,98812.00
2018-06-03T08:48:44.258Z,98812.00
2018-06-03T08:51:12.803Z,98815.00
2018-06-03T08:53:41.580Z,98816.00
2018-06-03T08:56:10.345Z,98809.00
2018-06-03T08:58:39.057Z,98811.00
2018-06-03T09:01:07.755Z,98809.00
2018-06-03T09:03:36.426Z,98804.00
2018-06-03T09:06:05.755Z,98805.00
2018-06-03T09:08:34.479Z,98810.00
2018-06-03T09:11:03.244Z,98803.00
2018-06-03T09:13:31.749Z,98793.00
2018-06-03T09:16:00.554Z,98793.00
2018-06-03T09:18:29.244Z,98796.00
2018-06-03T09:20:57.949Z,98804.00
2018-06-03T09:23:26.699Z,98796.00
2018-06-03T09:25:55.499Z,98798.00
2018-06-03T09:28:25.792Z,98791.00
2018-06-03T09:30:59.884Z,98791.00
2018-06-03T09:33:28.601Z,98787.00
2018-06-03T09:35:57.444Z,98783.00
2018-06-03T09:38:27.043Z,98774.00
2018-06-03T09:40:55.736Z,98771.00
2018-06-03T09:43:24.470Z,98769.00
2018-06-03T09:45:53.167Z,98765.00
2018-06-03T09:48:21.930Z,98764.00
2018-06-03T09:50:51.882Z,98761.00
2018-06-03T09:53:20.634Z,98765.00
2018-06-03T09:55:49.366Z,98762.00
2018-06-03T09:58:18.152Z,98764.00
2018-06-03T10:00:46.889Z,98761.00
2018-06-03T10:03:33.619Z,98756.00
2018-06-03T10:06:02.411Z,98753.00
2018-06-03T10:08:32.100Z,98754.00
2018-06-03T10:11:00.884Z,98759.00
2018-06-03T10:13:29.616Z,98758.00
2018-06-03T10:15:58.414Z,98759.00
2018-06-03T10:18:27.156Z,98761.00
2018-06-03T10:20:55.924Z,98757.00
2018-06-03T10:23:24.436Z,98757.00
2018-06-03T10:25:53.172Z,98752.00
2018-06-03T10:28:21.914Z,98751.00
2018-06-03T10:30:50.722Z,98754.00
2018-06-03T10:33:19.471Z,98750.00
2018-06-03T10:35:48.232Z,98754.00
2018-06-03T10:38:16.751Z,98752.00
2018-06-03T10:40:45.559Z,98753.00
2018-06-03T10:43:14.381Z,98755.00
2018-06-03T10:45:43.134Z,98749.00
2018-06-03T10:48:11.889Z,98759.00
2018-06-03T10:50:41.505Z,98751.00
2018-06-03T10:53:10.226Z,98760.00
2018-06-03T10:55:39.034Z,98762.00
2018-06-03T10:58:07.719Z,98767.00
2018-06-03T11:00:36.486Z,98758.00
2018-06-03T11:03:05.292Z,98756.00
2018-06-03T11:05:34.125Z,98754.00
2018-06-03T11:08:02.629Z,98754.00
2018-06-03T11:10:31.398Z,98754.00
2018-06-03T11:13:00.171Z,98751.00
2018-06-03T11:15:28.966Z,98748.00
2018-06-03T11:17:57.698Z,98745.00
2018-06-03T11:20:26.993Z,98750.00
2018-06-03T11:22:55.715Z,98746.00
2018-06-03T11:25:24.281Z,98750.00
2018-06-03T11:27:53.072Z,98740.00
2018-06-03T11:30:21.834Z,98741.00
2018-06-03T11:32:50.574Z,98742.00
2018-06-03T11:35:19.326Z,98738.00
2018-06-03T11:37:48.074Z,98737.00
2018-06-03T11:40:16.933Z,98735.00
2018-06-03T11:42:45.654Z,98734.00
2018-06-03T11:45:14.375Z,98731.00
2018-06-03T11:47:43.099Z,98732.00
2018-06-03T11:50:11.859Z,98728.00
2018-06-03T11:52:40.670Z,98723.00
2018-06-03T11:55:09.467Z,98721.00
2018-06-03T11:57:58.080Z,98725.00
2018-06-03T12:00:26.904Z,98722.00
2018-06-03T12:02:55.932Z,98712.00
2018-06-03T12:05:24.699Z,98708.00
2018-06-03T12:07:53.427Z,98702.00
2018-06-03T12:10:22.547Z,98705.00
2018-06-03T12:12:51.125Z,98692.00
2018-06-03T12:15:19.844Z,98690.00
2018-06-03T12:17:48.589Z,98684.00
2018-06-03T12:20:17.321Z,98679.00
2018-06-03T12:22:46.159Z,98683.00
2018-06-03T12:25:14.931Z,98673.00
2018-06-03T12:27:43.694Z,98672.00
2018-06-03T12:30:12.489Z,98672.00
2018-06-03T12:32:41.236Z,98668.00
2018-06-03T12:35:10.049Z,98670.00
2018-06-03T12:37:38.806Z,98662.00
2018-06-03T12:40:07.586Z,98662.00
2018-06-03T12:42:36.354Z,98660.00
2018-06-03T12:45:05.166Z,98656.00
2018-06-03T12:47:33.802Z,98660.00
2018-06-03T12:50:02.527Z,98659.00
2018-06-03T12:52:31.326Z,98656.00
2018-06-03T12:54:59.878Z,98646.00
2018-06-03T12:57:28.641Z,98641.00
2018-06-03T12:59:57.346Z,98644.00
2018-06-03T13:02:26.082Z,98648.00
2018-06-03T13:04:54.877Z,98638.00
2018-06-03T13:07:23.623Z,98633.00
2018-06-03T13:09:52.389Z,98632.00
2018-06-03T13:12:21.166Z,98629.00
2018-06-03T13:14:50.816Z,98624.00
2018-06-03T13:17:19.597Z,98630.00
2018-06-03T13:19:48.350Z,98617.00
2018-06-03T13:22:17.052Z,98616.00
2018-06-03T13:24:46.339Z,98605.00
2018-06-03T13:27:15.400Z,98608.00
2018-06-03T13:29:44.163Z,98605.00
2018-06-03T13:32:13.030Z,98601.00
2018-06-03T13:34:41.859Z,98590.00
2018-06-03T13:37:10.559Z,98598.00
2018-06-03T13:39:39.395Z,98589.00
2018-06-03T13:42:08.124Z,98595.00
2018-06-03T13:44:36.907Z,98591.00
2018-06-03T13:47:05.700Z,98584.00
2018-06-03T13:49:34.436Z,98578.00
2018-06-03T13:52:03.182Z,98584.00
2018-06-03T13:54:31.933Z,98575.00
2018-06-03T13:57:00.684Z,98577.00
2018-06-03T13:59:29.464Z,98571.00
2018-06-03T14:01:58.304Z,98567.00
2018-06-03T14:04:26.979Z,98561.00
2018-06-03T14:06:55.744Z,98565.00
2018-06-03T14:09:24.484Z,98565.00
2018-06-03T14:11:53.216Z,98568.00
2018-06-03T14:14:22.033Z,98558.00
2018-06-03T14:16:50.546Z,98562.00
2018-06-03T14:19:19.320Z,98553.00
2018-06-03T14:21:48.089Z,98554.00
2018-06-03T14:24:16.824Z,98552.00
2018-06-03T14:26:45.541Z,98549.00
2018-06-03T14:29:14.271Z,98548.00
2018-06-03T14:31:43.034Z,98540.00
2018-06-03T14:34:11.791Z,98536.00
2018-06-03T14:36:40.527Z,98539.00
2018-06-03T14:39:09.282Z,98535.00
2018-06-03T14:41:38.072Z,98534.00
2018-06-03T14:44:07.138Z,98536.00
2018-06-03T14:46:35.859Z,98533.00
2018-06-03T14:49:05.781Z,98528.00
2018-06-03T14:51:34.494Z,98524.00
2018-06-03T14:54:03.241Z,98521.00
2018-06-03T14:56:31.965Z,98517.00
2018-06-03T14:59:00.630Z,98516.00
2018-06-03T15:01:29.365Z,98510.00
2018-06-03T15:03:58.059Z,98511.00
2018-06-03T15:06:26.777Z,98510.00
2018-06-03T15:08:55.505Z,98503.00
2018-06-03T15:11:24.223Z,98500.00
2018-06-03T15:13:52.923Z,98496.00
2018-06-03T15:16:21.683Z,98501.00
2018-06-03T15:18:50.251Z,98500.00
2018-06-03T15:21:19.053Z,98500.00
2018-06-03T15:23:47.772Z,98497.00
2018-06-03T15:26:16.344Z,98503.00
2018-06-03T15:28:45.584Z,98503.00
2018-06-03T15:31:14.292Z,98497.00
2018-06-03T15:33:43.035Z,98496.00
2018-06-03T15:36:11.561Z,98491.00
2018-06-03T15:38:40.253Z,98487.00
2018-06-03T15:41:08.975Z,98483.00
2018-06-03T15:43:37.710Z,98484.00
2018-06-03T15:46:06.512Z,98481.00
2018-06-03T15:48:35.231Z,98479.00
2018-06-03T15:51:04.080Z,98471.00
2018-06-03T15:53:32.855Z,98475.00
2018-06-03T15:56:01.572Z,98473.00
2018-06-03T15:58:30.293Z,98478.00
2018-06-03T16:00:59.091Z,98476.00
2018-06-03T16:03:27.783Z,98477.00
2018-06-03T16:05:56.497Z,98474.00
2018-06-03T16:08:25.217Z,98469.00
2018-06-03T16:10:54.269Z,98468.00
2018-06-03T16:13:22.828Z,98470.00
2018-06-03T16:15:51.579Z,98470.00
2018-06-03T16:18:20.270Z,98467.00
2018-06-03T16:20:48.979Z,98469.00
2018-06-03T16:23:18.082Z,98465.00
2018-06-03T16:25:46.891Z,98459.00
2018-06-03T16:28:16.035Z,98460.00
2018-06-03T16:30:44.809Z,98466.00
2018-06-03T16:33:13.595Z,98470.00
2018-06-03T16:35:42.400Z,98462.00
2018-06-03T16:38:11.154Z,98463.00
2018-06-03T16:40:39.931Z,98458.00
2018-06-03T16:43:08.726Z,98456.00
2018-06-03T16:45:37.787Z,98454.00
2018-06-03T16:48:06.353Z,98459.00
2018-06-03T16:50:35.139Z,98457.00
2018-06-03T16:53:03.919Z,98455.00
2018-06-03T16:55:32.672Z,98452.00
2018-06-03T16:58:01.404Z,98454.00
2018-06-03T17:00:30.169Z,98451.00
2018-06-03T17:02:58.952Z,98460.00
2018-06-03T17:05:27.773Z,98462.00
2018-06-03T17:07:56.547Z,98455.00
2018-06-03T17:10:25.294Z,98466.00
2018-06-03T17:12:54.062Z,98466.00
2018-06-03T17:15:22.800Z,98467.00
2018-06-03T17:17:51.491Z,98470.00
2018-06-03T17:20:20.329Z,98477.00
2018-06-03T17:22:49.137Z,98481.00
2018-06-03T17:25:17.920Z,98476.00
2018-06-03T17:27:47.735Z,98478.00
2018-06-03T17:30:16.492Z,98483.00
2018-06-03T17:32:45.082Z,98485.00
2018-06-03T17:35:13.869Z,98482.00
2018-06-03T17:37:42.654Z,98485.00
2018-06-03T17:40:11.463Z,98480.00
2018-06-03T17:42:40.276Z,98484.00
2018-06-03T17:45:09.068Z,98486.00
2018-06-03T17:47:37.808Z,98486.00
2018-06-03T17:50:06.698Z,98484.00
2018-06-03T17:52:35.447Z,98479.00
2018-06-03T17:55:04.315Z,98480.00
2018-06-03T17:57:33.039Z,98480.00
2018-06-03T18:00:01.844Z,98476.00
2018-06-03T18:02:30.554Z,98473.00
2018-06-03T18:04:59.292Z,98471.00
2018-06-03T18:07:27.999Z,98471.00
2018-06-03T18:09:56.971Z,98479.00
2018-06-03T18:12:25.713Z,98473.00
2018-06-03T18:14:54.523Z,98476.00
2018-06-03T18:17:23.320Z,98474.00
2018-06-03T18:19:52.682Z,98473.00
2018-06-03T18:22:21.570Z,98476.00
2018-06-03T18:24:50.317Z,98476.00
2018-06-03T18:27:19.095Z,98481.00
2018-06-03T18:29:47.830Z,98476.00
2018-06-03T18:32:17.586Z,98483.00
2018-06-03T18:34:46.360Z,98485.00
2018-06-03T18:37:15.079Z,98482.00
2018-06-03T18:39:43.773Z,98483.00
2018-06-03T18:42:12.325Z,98487.00
2018-06-03T18:44:41.106Z,98492.00
2018-06-03T18:47:09.870Z,98493.00
2018-06-03T18:49:38.582Z,98496.00
2018-06-03T18:52:08.227Z,98498.00
2018-06-03T18:54:37.007Z,98498.00
2018-06-03T18:57:05.574Z,98494.00
2018-06-03T18:59:34.787Z,98500.00
2018-06-03T19:02:03.650Z,98504.00
2018-06-03T19:04:33.387Z,98508.00
2018-06-03T19:07:02.164Z,98511.00
2018-06-03T19:09:30.734Z,98509.00
2018-06-03T19:11:59.500Z,98512.00
2018-06-03T19:14:28.264Z,98508.00
2018-06-03T19:16:57.776Z,98510.00
2018-06-03T19:19:27.147Z,98505.00
2018-06-03T19:21:56.199Z,98508.00
2018-06-03T19:24:24.951Z,98508.00
2018-06-03T19:26:53.804Z,98513.00
2018-06-03T19:29:23.407Z,98514.00
2018-06-03T19:31:52.194Z,98513.00
2018-06-03T19:34:20.994Z,98524.00
2018-06-03T19:36:49.540Z,98526.00
2018-06-03T19:39:18.320Z,98527.00
2018-06-03T19:41:47.153Z,98528.00
2018-06-03T19:44:15.899Z,98528.00
2018-06-03T19:46:44.739Z,98531.00
2018-06-03T19:49:13.495Z,98532.00
2018-06-03T19:51:42.228Z,98538.00
2018-06-03T19:54:11.370Z,98544.00
2018-06-03T19:56:40.206Z,98544.00
2018-06-03T19:59:09.356Z,98541.00
2018-06-03T20:01:38.190Z,98540.00
2018-06-03T20:04:06.979Z,98541.00
2018-06-03T20:06:35.833Z,98539.00
2018-06-03T20:09:07.004Z,98536.00
2018-06-03T20:11:35.816Z,98530.00
2018-06-03T20:14:04.704Z,98527.00
2018-06-03T20:16:33.819Z,98525.00
2018-06-03T20:19:02.609Z,98515.00
2018-06-03T20:21:31.412Z,98514.00
2018-06-03T20:24:00.224Z,98515.00
2018-06-03T20:26:29.141Z,98521.00
2018-06-03T20:28:57.959Z,98531.00
2018-06-03T20:31:26.714Z,98531.00
2018-06-03T20:33:55.508Z,98530.00
2018-06-03T20:36:24.269Z,98526.00
2018-06-03T20:38:52.879Z,98530.00
2018-06-03T20:41:21.668Z,98523.00
2018-06-03T20:44:04.817Z,98519.00
2018-06-03T20:46:33.564Z,98512.00
2018-06-03T20:49:02.338Z,98515.00
2018-06-03T20:51:30.896Z,98516.00
2018-06-03T20:53:59.616Z,98522.00
2018-06-03T20:56:28.508Z,98522.00
2018-06-03T20:58:57.256Z,98518.00
2018-06-03T21:01:26.021Z,98520.00
2018-06-03T21:03:54.752Z,98523.00
2018-06-03T21:06:23.616Z,98518.00
2018-06-03T21:08:52.934Z,98515.00
2018-06-03T21:11:21.675Z,98513.00
2018-06-03T21:13:50.463Z,98517.00
2018-06-03T21:16:19.199Z,98513.00
2018-06-03T21:18:47.982Z,98520.00
2018-06-03T21:21:16.700Z,98522.00
2018-06-03T21:23:45.484Z,98519.00
2018-06-03T21:26:14.276Z,98527.00
2018-06-03T21:28:43.035Z,98522.00
2018-06-03T21:31:11.604Z,98518.00
2018-06-03T21:33:40.341Z,98513.00
2018-06-03T21:36:09.078Z,98505.00
2018-06-03T21:38:38.118Z,98501.00
2018-06-03T21:41:06.932Z,98507.00
2018-06-03T21:43:35.662Z,98501.00
2018-06-03T21:46:04.287Z,98504.00
2018-06-03T21:48:33.062Z,98496.00
2018-06-03T21:51:01.863Z,98495.00
2018-06-03T21:53:30.601Z,98496.00
2018-06-03T21:55:59.319Z,98490.00
2018-06-03T21:58:28.107Z,98492.00
2018-06-03T22:00:56.614Z,98493.00
2018-06-03T22:03:25.405Z,98499.00
2018-06-03T22:05:54.168Z,98497.00
2018-06-03T22:08:22.920Z,98500.00
2018-06-03T22:10:52.043Z,98501.00
2018-06-03T22:13:20.750Z,98495.00
2018-06-03T22:15:49.994Z,98491.00
2018-06-03T22:18:18.727Z,98488.00
2018-06-03T22:20:47.491Z,98493.00
2018-06-03T22:23:16.271Z,98490.00
2018-06-03T22:25:45.061Z,98487.00
2018-06-03T22:28:13.779Z,98481.00
2018-06-03T22:30:42.527Z,98476.00
2018-06-03T22:33:11.106Z,98477.00
2018-06-03T22:35:39.833Z,98474.00
2018-06-03T22:38:08.576Z,98467.00
2018-06-03T22:40:37.304Z,98464.00
2018-06-03T22:43:06.044Z,98461.00
2018-06-03T22:45:34.787Z,98458.00
2018-06-03T22:48:03.562Z,98464.00
2018-06-03T22:50:32.335Z,98455.00
2018-06-03T22:53:01.059Z,98454.00
2018-06-03T22:55:29.799Z,98451.00
2018-06-03T22:57:58.310Z,98450.00
2018-06-03T23:00:29.023Z,98441.00
2018-06-03T23:03:03.439Z,98442.00
2018-06-03T23:05:31.966Z,98446.00
2018-06-03T23:08:00.721Z,98440.00
2018-06-03T23:10:29.494Z,98441.00
2018-06-03T23:12:58.229Z,98443.00
2018-06-03T23:15:26.956Z,98440.00
2018-06-03T23:17:55.437Z,98446.00
2018-06-03T23:20:23.979Z,98442.00
2018-06-03T23:22:52.699Z,98447.00
2018-06-03T23:25:21.419Z,98442.00
2018-06-03T23:27:50.094Z,98441.00
2018-06-03T23:30:18.637Z,98445.00
2018-06-03T23:32:47.452Z,98441.00
2018-06-03T23:35:15.964Z,98447.00
2018-06-03T23:37:44.639Z,98446.00
2018-06-03T23:40:13.379Z,98450.00
2018-06-03T23:42:42.128Z,98448.00
2018-06-03T23:45:10.864Z,98442.00
2018-06-03T23:47:39.709Z,98444.00
2018-06-03T23:50:08.480Z,98447.00
2018-06-03T23:52:37.187Z,98449.00
2018-06-03T23:55:05.887Z,98448.00
2018-06-03T23:57:34.620Z,98445.00
